CSAV Lonquen — A8OT2 — position and weather

sailwx.info

Track history (hours):
 
Tides and Currents Weather Stations Pressure Air Temp Water Temp Dewpoint Dewpoint Depression Visibility Wind Speed Wind Dir Waves Ship Positions

CSAV Lonquen

Last reported at 2017-Jan-09 20:15 UTC. Time now 2017-Jan-22 03:38 UTC.
Position N 01°14' E 104°03'.
Warning: this ship's position is 12 days out of date.

Length 261 m; draft 7.7 m.

Type: Ship (hazmat cat A). MMSI: 636091501.

Date/timePositionNaut miles runAvg speedWind from/ knotsBaromVisibWave heightAir tempDewpointWater temp
2017-Jan-09 20:15N 01°14' E 104°03'6 8.4
2017-Jan-09 19:33N 01°14' E 103°57'7 7.1
2017-Jan-09 18:33N 01°16' E 103°50'0 0.3
2017-Jan-09 17:26N 01°16' E 103°50'0 0.0
2017-Jan-09 16:17N 01°16' E 103°50'0 0.0
2017-Jan-09 15:26N 01°16' E 103°50'0 0.0
2017-Jan-09 14:29N 01°16' E 103°50'0 0.0
2017-Jan-09 13:29N 01°16' E 103°50'0 0.0
2017-Jan-09 12:32N 01°16' E 103°50'0 0.0
2017-Jan-09 11:32N 01°16' E 103°50'0 0.0
2017-Jan-09 10:32N 01°16' E 103°50'0 0.0
2017-Jan-09 09:29N 01°16' E 103°50'0 0.0
2017-Jan-09 08:28N 01°16' E 103°50'0 0.0
2017-Jan-09 06:31N 01°16' E 103°50'0 0.0
2017-Jan-09 05:22N 01°16' E 103°50'0 0.0
2017-Jan-09 04:31N 01°16' E 103°50'3 3.1
2017-Jan-09 03:34N 01°15' E 103°53'1 0.8
2017-Jan-09 02:28N 01°15' E 103°53'0 0.2
2017-Jan-09 01:31N 01°15' E 103°53'0 0.1
2017-Jan-09 00:31N 01°15' E 103°53'0 0.1
2017-Jan-08 23:31N 01°15' E 103°53'0 0.1
2017-Jan-08 22:33N 01°15' E 103°53'5 4.5
2017-Jan-08 21:33N 01°11' E 103°51'3911.7
2017-Jan-08 18:14N 01°21' E 103°13'1014.1
2017-Jan-08 17:33N 01°26' E 103°05'1514.6
2017-Jan-08 16:33N 01°35' E 102°53'1414.3
2017-Jan-08 15:33N 01°42' E 102°41'1514.5
2017-Jan-08 14:33N 01°48' E 102°27'1514.6
2017-Jan-08 13:32N 01°54' E 102°14'  
Track history (hours):
 
Tides and Currents Weather Stations Pressure Air Temp Water Temp Dewpoint Dewpoint Depression Visibility Wind Speed Wind Dir Waves Ship Positions

CSAV Lonquen

Last reported at 2017-Jan-09 20:15 UTC. Time now 2017-Jan-22 03:38 UTC.
Position N 01°14' E 104°03'.
Warning: this ship's position is 12 days out of date.

Length 261 m; draft 7.7 m.

Type: Ship (hazmat cat A). MMSI: 636091501.

Date/timePositionNaut miles runAvg speedWind from/ knotsBaromVisibWave heightAir tempDewpointWater temp
2017-Jan-09 20:15N 01°14' E 104°03'6 8.4
2017-Jan-09 19:33N 01°14' E 103°57'7 7.1
2017-Jan-09 18:33N 01°16' E 103°50'0 0.3
2017-Jan-09 17:26N 01°16' E 103°50'0 0.0
2017-Jan-09 16:17N 01°16' E 103°50'0 0.0
2017-Jan-09 15:26N 01°16' E 103°50'0 0.0
2017-Jan-09 14:29N 01°16' E 103°50'0 0.0
2017-Jan-09 13:29N 01°16' E 103°50'0 0.0
2017-Jan-09 12:32N 01°16' E 103°50'0 0.0
2017-Jan-09 11:32N 01°16' E 103°50'0 0.0
2017-Jan-09 10:32N 01°16' E 103°50'0 0.0
2017-Jan-09 09:29N 01°16' E 103°50'0 0.0
2017-Jan-09 08:28N 01°16' E 103°50'0 0.0
2017-Jan-09 06:31N 01°16' E 103°50'0 0.0
2017-Jan-09 05:22N 01°16' E 103°50'0 0.0
2017-Jan-09 04:31N 01°16' E 103°50'3 3.1
2017-Jan-09 03:34N 01°15' E 103°53'1 0.8
2017-Jan-09 02:28N 01°15' E 103°53'0 0.2
2017-Jan-09 01:31N 01°15' E 103°53'0 0.1
2017-Jan-09 00:31N 01°15' E 103°53'0 0.1
2017-Jan-08 23:31N 01°15' E 103°53'0 0.1
2017-Jan-08 22:33N 01°15' E 103°53'5 4.5
2017-Jan-08 21:33N 01°11' E 103°51'3911.7
2017-Jan-08 18:14N 01°21' E 103°13'1014.1
2017-Jan-08 17:33N 01°26' E 103°05'1514.6
2017-Jan-08 16:33N 01°35' E 102°53'1414.3
2017-Jan-08 15:33N 01°42' E 102°41'1514.5
2017-Jan-08 14:33N 01°48' E 102°27'1514.6
2017-Jan-08 13:32N 01°54' E 102°14'  

Dump ship's entire track history